Time;durP1;ratioP1;P1;durP2;ratioP2;P2;SDS_P1;SDS_P2;PMS_P1;PMS_P2;Temp;Humidity;BMP_temperature;BMP_pressure;BME280_temperature;BME280_humidity;BME280_pressure;Samples;Min_cycle;Max_cycle;Signal;HPM_P1;HPM_P2
2022/06/26 00:00:10;;;;;;;2.53;1.33;;;;;;;17.71;67.42;95847.28;10360891;28;97288;-68
2022/06/26 00:05:13;;;;;;;2.25;1.10;;;;;;;17.77;67.04;95851.78;10371323;28;96764;-68
2022/06/26 00:10:16;;;;;;;3.33;1.30;;;;;;;17.90;67.13;95858.91;10368336;28;96862;-69
2022/06/26 00:15:21;;;;;;;3.97;1.27;;;;;;;17.94;66.57;95852.19;10373290;28;96964;-69
2022/06/26 00:20:24;;;;;;;2.78;1.55;;;;;;;17.91;66.66;95848.16;10363528;28;96818;-68
2022/06/26 00:25:27;;;;;;;1.98;1.27;;;;;;;17.98;66.38;95848.16;10372825;28;97316;-68
2022/06/26 00:30:32;;;;;;;1.20;1.10;;;;;;;18.04;66.59;95851.81;10367483;28;96794;-69
2022/06/26 00:35:34;;;;;;;1.10;0.90;;;;;;;18.04;66.47;95855.25;10357424;28;97031;-68
2022/06/26 00:40:38;;;;;;;0.98;0.88;;;;;;;18.12;66.69;95849.75;10354682;28;97051;-69
2022/06/26 00:45:43;;;;;;;4.38;1.20;;;;;;;18.02;67.23;95859.94;10367164;28;98287;-69
2022/06/26 00:50:45;;;;;;;1.45;1.08;;;;;;;17.97;67.53;95851.00;10368412;28;96848;-69
2022/06/26 00:55:48;;;;;;;2.05;1.00;;;;;;;18.00;67.62;95853.25;10351188;28;97325;-68
2022/06/26 01:00:53;;;;;;;2.15;1.13;;;;;;;17.99;67.83;95857.69;10365990;28;96864;-68
2022/06/26 01:05:56;;;;;;;2.33;0.98;;;;;;;17.98;67.64;95853.44;10361847;28;96858;-68
2022/06/26 01:10:59;;;;;;;1.70;0.95;;;;;;;18.02;67.04;95853.84;10351294;28;103828;-68
2022/06/26 01:16:03;;;;;;;1.75;1.00;;;;;;;18.02;67.38;95857.28;10364993;28;101200;-68
2022/06/26 01:21:07;;;;;;;1.48;0.88;;;;;;;17.93;68.36;95855.88;10355511;28;96972;-69
2022/06/26 01:26:11;;;;;;;2.30;0.80;;;;;;;17.91;68.15;95852.63;10358490;28;96938;-69
2022/06/26 01:31:14;;;;;;;;;;;;;;;17.87;67.23;95856.66;10360222;28;96865;-69
2022/06/26 01:36:17;;;;;;;1.92;1.08;;;;;;;17.83;67.83;95845.66;10361074;28;97497;-68
2022/06/26 01:41:22;;;;;;;3.53;1.02;;;;;;;17.77;68.49;95857.06;10359409;28;98108;-69
2022/06/26 01:46:26;;;;;;;3.33;0.82;;;;;;;17.72;68.33;95844.44;10357096;28;96775;-68
2022/06/26 01:51:29;;;;;;;1.83;0.90;;;;;;;17.66;68.31;95833.88;10362347;28;99177;-68
2022/06/26 01:56:33;;;;;;;1.25;0.90;;;;;;;17.57;68.80;95836.69;10352157;28;98516;-68
2022/06/26 02:01:36;;;;;;;1.42;0.90;;;;;;;17.53;69.40;95829.41;10372590;28;97882;-69
2022/06/26 02:06:39;;;;;;;3.42;1.27;;;;;;;17.51;69.44;95828.78;10362329;28;96971;-69
2022/06/26 02:17:04;;;;;;;3.35;1.00;;;;;;;17.60;68.91;95830.22;10363951;28;96840;-68
2022/06/26 02:22:07;;;;;;;2.13;1.08;;;;;;;17.60;69.37;95827.56;10368975;28;96860;-68
2022/06/26 02:27:11;;;;;;;1.80;1.02;;;;;;;17.60;70.17;95827.56;10361668;28;97544;-68
2022/06/26 02:32:14;;;;;;;1.50;1.05;;;;;;;17.67;69.49;95836.31;10356899;28;96908;-68
2022/06/26 02:37:17;;;;;;;1.63;1.30;;;;;;;17.72;69.24;95827.78;10349892;28;96942;-71
2022/06/26 02:42:21;;;;;;;2.55;1.10;;;;;;;17.75;69.45;95822.91;10359551;28;96914;-68
2022/06/26 02:47:24;;;;;;;1.60;0.98;;;;;;;17.66;69.91;95829.38;10362431;28;96909;-68
2022/06/26 02:52:28;;;;;;;1.67;1.00;;;;;;;17.55;69.81;95822.88;10353809;28;97643;-68
2022/06/26 02:57:32;;;;;;;2.53;1.00;;;;;;;17.56;70.39;95815.75;10361682;28;99689;-69
2022/06/26 03:02:36;;;;;;;2.10;0.98;;;;;;;17.50;70.38;95829.78;10359459;28;97606;-69
2022/06/26 03:07:38;;;;;;;3.65;0.82;;;;;;;17.44;70.13;95835.88;10350194;28;97997;-69
2022/06/26 03:12:47;;;;;;;3.10;1.02;;;;;;;17.41;70.30;95846.84;10371060;28;97129;-69
2022/06/26 03:17:50;;;;;;;3.08;1.08;;;;;;;17.42;69.92;95843.19;10358642;28;96813;-69
2022/06/26 03:22:53;;;;;;;1.90;1.00;;;;;;;17.41;70.22;95863.50;10363747;28;100039;-69
2022/06/26 03:27:57;;;;;;;1.48;0.93;;;;;;;17.38;70.19;95866.53;10365482;28;99303;-68
2022/06/26 03:33:00;;;;;;;1.08;0.75;;;;;;;17.42;70.41;95864.31;10363936;28;100464;-68
2022/06/26 03:38:03;;;;;;;3.80;1.20;;;;;;;17.43;70.62;95840.34;10349827;28;96973;-68
2022/06/26 03:43:11;;;;;;;1.73;1.00;;;;;;;17.36;70.76;95837.69;10350436;28;98556;-68
2022/06/26 03:48:14;;;;;;;3.13;1.42;;;;;;;17.26;71.54;95845.16;10357585;28;98412;-69
2022/06/26 03:53:16;;;;;;;3.47;1.08;;;;;;;17.31;71.05;95853.31;10354487;28;96850;-68
2022/06/26 03:58:21;;;;;;;2.30;1.10;;;;;;;17.48;71.23;95858.25;10367220;28;100664;-68
2022/06/26 04:03:24;;;;;;;2.45;0.90;;;;;;;17.50;71.41;95874.69;10352901;28;97176;-69
2022/06/26 04:08:27;;;;;;;2.90;1.23;;;;;;;17.52;71.90;95897.22;10349743;28;98482;-68
2022/06/26 04:13:31;;;;;;;2.78;1.30;;;;;;;17.47;72.36;95912.06;10356057;28;96864;-69
2022/06/26 04:18:34;;;;;;;2.50;1.25;;;;;;;17.31;73.50;95900.03;10354930;28;98619;-68
2022/06/26 04:23:37;;;;;;;2.47;1.20;;;;;;;17.24;74.78;95931.66;10358205;28;97088;-69
2022/06/26 04:28:41;;;;;;;3.83;1.45;;;;;;;17.29;74.79;95933.72;10347627;28;98692;-69
2022/06/26 04:33:44;;;;;;;4.45;1.58;;;;;;;17.37;75.36;95938.84;10364776;28;96837;-68
2022/06/26 04:38:47;;;;;;;2.50;1.40;;;;;;;17.42;75.62;95927.69;10358155;28;97131;-68
2022/06/26 04:43:51;;;;;;;3.85;1.52;;;;;;;17.40;76.44;95913.88;10339924;28;97208;-69
2022/06/26 04:48:54;;;;;;;2.63;1.33;;;;;;;17.35;76.75;95946.13;10355831;28;96827;-68
2022/06/26 04:53:57;;;;;;;3.03;1.70;;;;;;;17.31;77.19;95969.47;10353364;28;96882;-68
2022/06/26 04:59:01;;;;;;;3.22;1.70;;;;;;;17.26;77.71;95989.56;10351186;28;98423;-68
2022/06/26 05:04:05;;;;;;;3.58;1.60;;;;;;;17.07;78.24;95952.31;10360395;28;96826;-69
2022/06/26 05:09:07;;;;;;;4.18;1.80;;;;;;;16.98;78.87;95959.56;10348381;28;98505;-68
2022/06/26 05:14:12;;;;;;;3.53;2.15;;;;;;;16.96;79.34;95937.03;10348785;28;97161;-71
2022/06/26 05:19:14;;;;;;;2.65;1.90;;;;;;;16.93;79.76;95913.66;10352066;28;100281;-68
2022/06/26 05:24:17;;;;;;;2.17;1.80;;;;;;;16.96;80.20;95914.09;10360533;28;96924;-69
2022/06/26 05:29:21;;;;;;;2.65;1.48;;;;;;;17.03;80.19;95913.31;10355236;28;96912;-69
2022/06/26 05:34:24;;;;;;;3.08;1.75;;;;;;;17.14;79.80;95920.66;10356737;28;99078;-69
2022/06/26 05:39:27;;;;;;;3.30;2.25;;;;;;;17.16;80.12;95905.44;10359952;28;96743;-68
2022/06/26 05:44:31;;;;;;;3.95;1.90;;;;;;;17.17;80.37;95917.63;10355582;28;96875;-69
2022/06/26 05:49:34;;;;;;;5.90;2.22;;;;;;;17.18;80.11;95937.75;10356985;28;99112;-69
2022/06/26 05:54:37;;;;;;;3.75;1.75;;;;;;;17.18;80.32;95929.84;10351102;28;98629;-71
2022/06/26 05:59:41;;;;;;;4.80;1.83;;;;;;;17.11;80.72;95915.78;10351658;28;96959;-69
2022/06/26 06:04:44;;;;;;;4.28;1.90;;;;;;;17.17;80.69;95933.47;10351973;28;99266;-69
2022/06/26 06:09:53;;;;;;;4.68;1.75;;;;;;;17.22;80.98;95927.63;10362284;28;97578;-69
2022/06/26 06:14:58;;;;;;;1.45;1.35;;;;;;;17.30;80.26;95919.50;10364403;28;96868;-69
2022/06/26 06:20:01;;;;;;;5.60;1.90;;;;;;;17.53;80.12;95913.91;10362496;28;96923;-69
2022/06/26 06:25:04;;;;;;;2.72;1.67;;;;;;;17.70;80.26;95903.75;10340932;28;98562;-69
2022/06/26 06:30:16;;;;;;;3.47;1.60;;;;;;;17.82;79.04;95904.00;10345782;28;98643;-68
2022/06/26 06:35:19;;;;;;;2.42;1.77;;;;;;;17.87;79.06;95904.22;10341193;28;98530;-69
2022/06/26 06:40:22;;;;;;;2.75;1.40;;;;;;;18.09;78.90;95913.59;10350393;28;96866;-69
2022/06/26 06:45:27;;;;;;;3.20;1.55;;;;;;;18.22;78.68;95922.56;10361651;28;98741;-68
2022/06/26 06:50:29;;;;;;;;;;;;;;;18.44;78.31;95926.63;10350359;28;98563;-69
2022/06/26 06:55:32;;;;;;;3.50;1.60;;;;;;;18.60;77.32;95930.69;10362685;28;98998;-69
2022/06/26 07:00:36;;;;;;;4.40;1.58;;;;;;;18.62;77.14;95919.88;10365515;28;97230;-68
2022/06/26 07:05:40;;;;;;;2.60;1.50;;;;;;;18.46;77.83;95918.47;10362681;28;100189;-68
2022/06/26 07:10:43;;;;;;;1.52;1.23;;;;;;;18.40;77.14;95917.47;10359898;28;99432;-68
2022/06/26 07:15:47;;;;;;;2.55;1.45;;;;;;;18.50;77.53;95917.88;10367472;28;96821;-68
2022/06/26 07:20:50;;;;;;;1.48;1.15;;;;;;;18.57;78.38;95919.69;10341974;28;97162;-69
2022/06/26 07:25:55;;;;;;;1.88;1.25;;;;;;;18.70;77.24;95914.38;10356285;28;99340;-69
2022/06/26 07:31:00;;;;;;;3.47;1.10;;;;;;;18.91;76.72;95913.34;10367871;28;97268;-68
2022/06/26 07:36:03;;;;;;;;;;;;;;;19.11;75.38;95915.13;10354426;28;97472;-68
2022/06/26 07:41:05;;;;;;;2.35;1.30;;;;;;;19.27;74.48;95913.84;10368117;28;98579;-69
2022/06/26 07:46:10;;;;;;;2.97;1.10;;;;;;;19.66;73.30;95917.31;10345389;28;97377;-68
2022/06/26 07:51:13;;;;;;;1.73;0.93;;;;;;;20.03;72.56;95902.41;10362041;28;96870;-69
2022/06/26 07:56:16;;;;;;;1.48;1.02;;;;;;;20.28;72.29;95910.38;10364987;28;96863;-69
2022/06/26 08:01:21;;;;;;;1.00;0.90;;;;;;;20.43;71.19;95906.59;10365510;28;96747;-69
2022/06/26 08:06:24;;;;;;;1.00;0.90;;;;;;;20.64;69.70;95914.16;10366257;28;96959;-69
2022/06/26 08:11:28;;;;;;;4.55;1.52;;;;;;;20.80;70.31;95907.47;10360852;28;96833;-69
2022/06/26 08:16:32;;;;;;;1.98;0.90;;;;;;;20.87;68.26;95907.41;10368241;28;98685;-69
2022/06/26 08:26:55;;;;;;;2.05;1.02;;;;;;;20.98;67.36;95906.69;10353425;28;97044;-69
2022/06/26 08:32:00;;;;;;;2.10;0.90;;;;;;;21.16;66.68;95918.34;10353422;28;97043;-69
2022/06/26 08:37:03;;;;;;;0.68;0.68;;;;;;;21.13;65.09;95917.72;10360892;28;97575;-69
2022/06/26 08:42:08;;;;;;;2.10;1.00;;;;;;;21.10;65.98;95912.88;10359788;28;99257;-69
2022/06/26 08:47:14;;;;;;;2.33;1.17;;;;;;;21.10;65.31;95920.03;10372048;28;96828;-69
2022/06/26 08:52:20;;;;;;;2.13;0.85;;;;;;;21.24;66.02;95907.41;10366377;28;96866;-69
2022/06/26 08:57:24;;;;;;;2.60;1.20;;;;;;;21.41;66.08;95897.78;10351574;28;96955;-69
2022/06/26 09:02:28;;;;;;;2.08;0.90;;;;;;;21.39;64.91;95905.16;10344752;28;96782;-69
2022/06/26 09:07:31;;;;;;;1.92;1.30;;;;;;;21.20;64.96;95892.94;10354012;28;96998;-69
2022/06/26 09:12:37;;;;;;;1.15;1.00;;;;;;;21.58;66.42;95897.97;10371255;28;97135;-69
2022/06/26 09:17:42;;;;;;;2.78;0.80;;;;;;;22.15;63.84;95884.28;10351496;28;97236;-69
2022/06/26 09:22:52;;;;;;;;;;;;;;;22.60;63.38;95894.41;10358386;28;96849;-69
2022/06/26 09:27:55;;;;;;;1.70;1.00;;;;;;;23.01;62.42;95889.13;10362129;28;98291;-72
2022/06/26 09:33:01;;;;;;;2.35;1.00;;;;;;;23.22;60.79;95879.72;10348079;28;99241;-72
2022/06/26 09:38:04;;;;;;;1.70;1.05;;;;;;;23.28;60.28;95884.13;10353042;28;97720;-72
2022/06/26 09:43:07;;;;;;;1.55;0.80;;;;;;;23.40;60.87;95870.75;10351429;28;98622;-72
2022/06/26 09:48:11;;;;;;;1.58;0.82;;;;;;;23.50;59.44;95857.63;10356440;28;97693;-72
2022/06/26 09:53:22;;;;;;;3.95;1.10;;;;;;;23.59;58.75;95858.03;10351848;28;96917;-72
2022/06/26 09:58:27;;;;;;;1.45;0.90;;;;;;;23.61;57.22;95861.28;10353792;28;98888;-72
2022/06/26 10:08:57;;;;;;;1.38;0.70;;;;;;;23.68;54.81;95851.25;10362520;28;97266;-72
2022/06/26 10:14:04;;;;;;;1.25;0.80;;;;;;;23.68;56.58;95850.47;10357562;28;101464;-72
2022/06/26 10:19:18;;;;;;;0.90;0.80;;;;;;;23.84;56.53;95840.84;10361193;28;100827;-72
2022/06/26 10:24:21;;;;;;;2.25;0.90;;;;;;;23.61;56.04;95837.28;10362530;28;97938;-72
2022/06/26 10:29:36;;;;;;;1.88;1.58;;;;;;;23.33;56.36;95828.25;10367041;28;98337;-72
2022/06/26 10:34:40;;;;;;;1.80;0.75;;;;;;;23.43;56.21;95822.31;10368211;28;97122;-72
2022/06/26 10:39:46;;;;;;;0.93;0.60;;;;;;;23.50;55.71;95814.97;10353965;28;97172;-72
2022/06/26 10:44:55;;;;;;;1.15;0.80;;;;;;;23.60;54.81;95811.66;10359426;28;98681;-72
2022/06/26 10:49:59;;;;;;;1.77;1.08;;;;;;;23.93;54.96;95812.72;10359996;28;97138;-72
2022/06/26 10:55:02;;;;;;;0.90;0.80;;;;;;;24.29;54.07;95797.28;10362246;28;98718;-72
2022/06/26 11:00:10;;;;;;;2.08;0.90;;;;;;;24.26;54.09;95803.09;10364142;28;98610;-72
2022/06/26 11:05:14;;;;;;;2.03;0.90;;;;;;;24.13;53.72;95789.06;10357119;28;98116;-72
2022/06/26 11:10:19;;;;;;;1.33;0.90;;;;;;;23.53;55.23;95773.66;10358206;28;101217;-72
2022/06/26 11:15:25;;;;;;;1.52;0.90;;;;;;;23.18;55.13;95771.97;10356700;28;98725;-72
2022/06/26 11:20:50;;;;;;;2.75;1.05;;;;;;;23.05;54.58;95766.91;10361684;28;98568;-72
2022/06/26 11:25:56;;;;;;;1.35;0.90;;;;;;;23.21;53.72;95755.50;10366193;28;97797;-72
2022/06/26 11:31:01;;;;;;;2.33;1.40;;;;;;;23.46;54.49;95747.16;10358511;28;97229;-72
2022/06/26 11:36:07;;;;;;;3.40;1.20;;;;;;;23.57;53.30;95732.16;10352581;28;98690;-72
2022/06/26 11:41:10;;;;;;;2.70;1.20;;;;;;;23.57;53.54;95732.16;10357775;28;97985;-72
2022/06/26 11:46:13;;;;;;;2.25;1.60;;;;;;;23.84;53.45;95715.50;10358499;28;97537;-70
2022/06/26 11:51:19;;;;;;;1.60;1.08;;;;;;;24.00;54.09;95720.00;10356133;28;98467;-69
2022/06/26 11:56:25;;;;;;;1.75;1.30;;;;;;;24.01;54.30;95726.16;10365327;28;97038;-69
2022/06/26 12:01:34;;;;;;;1.50;1.00;;;;;;;24.01;53.29;95732.28;10364559;28;97677;-70
2022/06/26 12:06:40;;;;;;;2.78;1.13;;;;;;;23.70;54.05;95723.81;10354156;28;98969;-71
2022/06/26 12:11:44;;;;;;;3.25;1.15;;;;;;;23.64;54.16;95726.69;10357484;28;97681;-70
2022/06/26 12:16:49;;;;;;;2.50;1.20;;;;;;;23.73;54.34;95718.00;10355617;28;97203;-69
2022/06/26 12:21:54;;;;;;;1.42;0.95;;;;;;;23.86;54.66;95708.06;10353546;28;99085;-69
2022/06/26 12:26:58;;;;;;;2.35;1.10;;;;;;;23.95;53.59;95709.28;10356116;28;97582;-69
2022/06/26 12:32:01;;;;;;;3.45;1.15;;;;;;;23.96;53.42;95708.19;10358538;28;97658;-71
2022/06/26 12:37:06;;;;;;;1.87;1.30;;;;;;;24.30;53.68;95708.16;10351154;28;97986;-70
2022/06/26 12:42:09;;;;;;;2.67;0.98;;;;;;;24.66;53.05;95704.06;10354162;28;98702;-69
2022/06/26 12:47:12;;;;;;;1.92;0.85;;;;;;;24.86;51.64;95695.47;10366010;28;97224;-70
2022/06/26 12:52:17;;;;;;;1.77;1.00;;;;;;;24.77;50.94;95672.91;10356625;28;98367;-71
2022/06/26 12:57:20;;;;;;;2.53;1.02;;;;;;;25.14;51.25;95677.56;10362398;28;96905;-70
2022/06/26 13:02:23;;;;;;;2.38;1.17;;;;;;;25.51;51.13;95674.16;10368872;28;96996;-69
2022/06/26 13:07:27;;;;;;;1.77;1.10;;;;;;;25.78;51.78;95667.94;10361727;28;96837;-69
2022/06/26 13:12:32;;;;;;;3.10;1.20;;;;;;;26.03;48.51;95664.59;10360661;28;97159;-69
2022/06/26 13:17:35;;;;;;;2.73;1.10;;;;;;;26.45;47.88;95670.97;10342730;28;96891;-69
2022/06/26 13:22:40;;;;;;;1.92;1.15;;;;;;;26.13;48.17;95658.50;10350729;28;97869;-69
2022/06/26 13:27:43;;;;;;;3.83;1.25;;;;;;;26.13;47.76;95658.50;10359455;28;97465;-70
2022/06/26 13:32:45;;;;;;;4.33;1.20;;;;;;;26.41;48.28;95653.81;10355604;28;98047;-69
2022/06/26 13:37:49;;;;;;;1.77;1.20;;;;;;;26.61;46.55;95648.53;10348833;28;97961;-70
2022/06/26 13:42:52;;;;;;;1.48;1.00;;;;;;;27.07;47.61;95643.25;10354901;28;98400;-70
2022/06/26 13:47:55;;;;;;;3.00;1.13;;;;;;;27.31;46.59;95638.16;10359094;28;98642;-70
2022/06/26 13:52:59;;;;;;;4.73;1.30;;;;;;;27.50;46.12;95627.69;10357911;28;97252;-70
2022/06/26 13:58:02;;;;;;;2.40;1.25;;;;;;;27.77;45.01;95629.31;10365153;28;97455;-70
2022/06/26 14:03:05;;;;;;;2.10;1.20;;;;;;;27.47;45.54;95614.84;10364948;28;98726;-69
2022/06/26 14:08:10;;;;;;;3.33;1.20;;;;;;;27.77;45.72;95610.53;10363651;28;98797;-71
2022/06/26 14:13:13;;;;;;;2.28;0.98;;;;;;;28.95;43.12;95599.25;10359524;28;96850;-70
2022/06/26 14:18:17;;;;;;;4.80;1.15;;;;;;;30.47;39.82;95599.88;10359781;28;100612;-70
2022/06/26 14:28:41;;;;;;;4.75;1.55;;;;;;;33.09;37.51;95589.72;10346943;28;97588;-70
2022/06/26 14:33:45;;;;;;;1.30;0.80;;;;;;;34.25;35.14;95585.38;10366592;28;96984;-70
2022/06/26 14:38:49;;;;;;;2.85;0.93;;;;;;;34.24;34.22;95570.22;10354736;28;98842;-70
2022/06/26 14:43:56;;;;;;;2.63;1.08;;;;;;;34.74;33.29;95567.09;10358884;28;102205;-68
2022/06/26 14:48:58;;;;;;;2.13;1.02;;;;;;;35.92;31.17;95573.28;10357707;28;98337;-68
2022/06/26 14:54:03;;;;;;;3.42;0.95;;;;;;;35.95;30.45;95567.19;10350061;28;96933;-67
2022/06/26 14:59:06;;;;;;;3.92;1.40;;;;;;;35.78;32.06;95562.63;10369099;28;97668;-68
2022/06/26 15:04:09;;;;;;;2.80;1.50;;;;;;;35.20;31.41;95554.00;10361382;28;98869;-67
2022/06/26 15:09:14;;;;;;;3.25;1.23;;;;;;;35.89;30.30;95547.56;10359619;28;97743;-68
2022/06/26 15:14:17;;;;;;;4.43;1.60;;;;;;;36.48;29.68;95550.59;10365275;28;98388;-68
2022/06/26 15:19:20;;;;;;;2.60;1.20;;;;;;;37.01;29.64;95540.91;10359916;28;98904;-68
2022/06/26 15:24:25;;;;;;;2.53;0.73;;;;;;;36.94;29.46;95529.78;10360839;28;97382;-69
2022/06/26 15:29:28;;;;;;;3.67;1.10;;;;;;;36.11;30.05;95540.25;10363308;28;98962;-69
2022/06/26 15:34:31;;;;;;;2.97;1.23;;;;;;;34.83;31.61;95528.31;10359579;28;98863;-68
2022/06/26 15:39:35;;;;;;;4.57;1.30;;;;;;;34.67;32.11;95536.94;10363846;28;98096;-68
2022/06/26 15:44:38;;;;;;;2.00;1.10;;;;;;;34.99;33.15;95539.47;10359280;28;96851;-68
2022/06/26 15:49:41;;;;;;;2.35;1.00;;;;;;;34.70;31.95;95539.03;10363609;28;102331;-69
2022/06/26 15:54:45;;;;;;;3.00;1.27;;;;;;;33.82;32.45;95535.31;10364182;28;98058;-68
2022/06/26 15:59:48;;;;;;;3.47;1.08;;;;;;;33.37;33.51;95540.84;10365333;28;100576;-67
2022/06/26 16:04:50;;;;;;;2.42;1.10;;;;;;;33.19;33.56;95520.22;10360483;28;97696;-71
2022/06/26 16:09:55;;;;;;;3.05;1.10;;;;;;;33.33;32.98;95520.94;10361569;28;96860;-67
2022/06/26 16:14:59;;;;;;;2.30;1.17;;;;;;;34.58;32.18;95517.16;10355552;28;97147;-69
2022/06/26 16:20:03;;;;;;;2.80;1.35;;;;;;;34.86;31.16;95514.13;10348820;28;100239;-69
2022/06/26 16:30:35;;;;;;;2.33;1.20;;;;;;;36.82;29.50;95511.47;10237145;28;96900;-69
2022/06/26 16:35:40;;;;;;;2.55;1.30;;;;;;;38.46;27.93;95503.56;10222328;28;97028;-69
2022/06/26 16:40:44;;;;;;;2.85;1.20;;;;;;;39.59;25.97;95498.84;10245779;28;97090;-68
2022/06/26 16:45:47;;;;;;;4.38;1.20;;;;;;;40.61;24.96;95497.22;10228141;28;97174;-66
2022/06/26 16:50:50;;;;;;;1.75;1.00;;;;;;;41.29;24.97;95497.75;10244647;28;96982;-67
2022/06/26 16:55:54;;;;;;;2.33;1.00;;;;;;;41.33;24.30;95504.09;10236652;28;97224;-66
2022/06/26 17:00:57;;;;;;;1.67;1.15;;;;;;;41.25;24.21;95502.38;10228625;28;97577;-66
2022/06/26 17:06:00;;;;;;;3.40;1.38;;;;;;;40.83;24.89;95501.19;10289072;28;96974;-68
2022/06/26 17:11:12;;;;;;;108.80;84.63;;;;;;;39.62;25.43;95502.81;10356052;28;97113;-67
2022/06/26 17:16:16;;;;;;;3.15;1.38;;;;;;;38.74;26.39;95503.59;10353660;28;97525;-67
2022/06/26 17:21:19;;;;;;;3.97;2.33;;;;;;;37.63;27.54;95500.19;10352863;28;96856;-69
2022/06/26 17:26:24;;;;;;;2.67;1.75;;;;;;;36.41;28.71;95502.94;10341519;28;100640;-69
2022/06/26 17:31:27;;;;;;;1.98;1.10;;;;;;;35.66;29.56;95498.09;10355046;28;98689;-68
2022/06/26 17:36:30;;;;;;;4.13;1.30;;;;;;;34.59;30.74;95491.59;10366136;28;96841;-68
2022/06/26 17:41:35;;;;;;;3.05;1.15;;;;;;;33.39;32.59;95489.91;10346025;28;96908;-70
2022/06/26 17:46:37;;;;;;;2.83;0.93;;;;;;;34.01;32.01;95491.69;10360532;28;98389;-67
2022/06/26 17:51:41;;;;;;;1.88;0.98;;;;;;;35.13;30.75;95499.38;10358916;28;96984;-70
2022/06/26 17:56:46;;;;;;;2.63;1.35;;;;;;;34.49;32.04;95497.34;10361362;28;97182;-71
2022/06/26 18:01:49;;;;;;;2.00;1.27;;;;;;;33.56;34.12;95491.09;10359309;28;96727;-73
2022/06/26 18:06:52;;;;;;;2.28;1.10;;;;;;;32.91;35.43;95496.00;10364657;28;99074;-71
2022/06/26 18:11:57;;;;;;;2.78;1.13;;;;;;;32.52;36.87;95500.97;10355718;28;97348;-71
2022/06/26 18:17:01;;;;;;;2.97;1.33;;;;;;;31.45;38.75;95506.69;10350058;28;97311;-69
2022/06/26 18:22:04;;;;;;;6.57;1.50;;;;;;;30.54;40.99;95496.31;10360168;28;99119;-68
2022/06/26 18:27:08;;;;;;;3.85;1.48;;;;;;;29.79;41.96;95493.25;10347998;28;99679;-69
2022/06/26 19:09:18;;;;;;;4.60;1.40;;;;;;;25.97;47.29;95521.94;10405293;27;98597;-71
2022/06/26 19:19:43;;;;;;;3.08;1.40;;;;;;;25.78;48.27;95534.16;10402510;27;96897;-72
2022/06/26 19:24:48;;;;;;;3.70;1.58;;;;;;;25.68;48.95;95544.81;10395826;27;98361;-76
2022/06/26 19:29:52;;;;;;;4.90;1.58;;;;;;;25.45;49.31;95538.78;10401545;27;96923;-71
2022/06/26 19:34:54;;;;;;;3.10;1.53;;;;;;;25.22;49.61;95543.47;10394943;27;97295;-74
2022/06/26 19:39:59;;;;;;;3.45;1.40;;;;;;;25.25;49.78;95545.63;10395931;28;98315;-73
2022/06/26 19:45:05;;;;;;;4.53;1.67;;;;;;;25.27;50.50;95549.91;10393264;27;98715;-74
2022/06/26 19:55:32;;;;;;;2.15;1.30;;;;;;;25.33;49.57;95556.91;10396148;27;98588;-71
2022/06/26 20:00:36;;;;;;;4.18;1.58;;;;;;;25.06;50.44;95566.63;10398774;27;97184;-74
2022/06/26 20:05:40;;;;;;;3.83;1.35;;;;;;;24.72;51.51;95575.91;10398189;27;98496;-70
2022/06/26 20:10:44;;;;;;;4.07;1.50;;;;;;;24.48;52.03;95582.34;10396119;27;97745;-70
2022/06/26 20:15:47;;;;;;;2.22;1.25;;;;;;;24.35;52.60;95579.28;10394515;27;97858;-71
2022/06/26 20:20:51;;;;;;;3.72;1.35;;;;;;;24.32;53.31;95599.28;10366065;28;98678;-74
2022/06/26 20:25:55;;;;;;;5.37;1.70;;;;;;;24.24;54.55;95610.38;10363591;28;98675;-74
2022/06/26 20:30:58;;;;;;;5.20;1.88;;;;;;;24.24;54.66;95618.41;10363216;28;99362;-69
2022/06/26 20:36:02;;;;;;;3.00;1.70;;;;;;;24.17;54.81;95607.91;10365616;28;96935;-71
2022/06/26 20:41:06;;;;;;;3.40;1.50;;;;;;;23.96;56.08;95622.84;10366638;28;98839;-70
2022/06/26 20:46:11;;;;;;;3.88;1.60;;;;;;;23.93;56.30;95618.81;10359851;28;97060;-72
2022/06/26 20:51:14;;;;;;;3.80;1.83;;;;;;;23.86;56.80;95623.53;10367941;28;97477;-73
2022/06/26 20:56:19;;;;;;;4.32;2.00;;;;;;;23.73;57.34;95627.34;10368958;28;101288;-72
2022/06/26 21:01:22;;;;;;;4.22;1.80;;;;;;;23.61;57.79;95641.84;10371938;28;97328;-71
2022/06/26 21:06:25;;;;;;;5.18;1.70;;;;;;;23.58;57.75;95636.97;10362358;28;98673;-72
2022/06/26 21:11:29;;;;;;;3.05;1.60;;;;;;;23.63;57.70;95645.06;10366870;28;96929;-72
2022/06/26 21:16:32;;;;;;;2.83;1.77;;;;;;;23.62;57.66;95638.09;10364888;28;98361;-72
2022/06/26 21:21:35;;;;;;;4.05;1.80;;;;;;;23.60;57.72;95651.66;10358761;28;98632;-72
2022/06/26 21:26:40;;;;;;;4.10;1.60;;;;;;;23.52;57.96;95652.09;10366633;28;96970;-72
2022/06/26 21:31:43;;;;;;;4.20;1.80;;;;;;;23.43;59.12;95662.38;10376979;28;97786;-73
2022/06/26 21:36:46;;;;;;;6.85;2.30;;;;;;;23.25;59.84;95666.03;10380983;28;97192;-75
2022/06/26 21:41:50;;;;;;;4.38;2.33;;;;;;;23.14;59.47;95653.59;10368759;28;97269;-71
2022/06/26 21:46:53;;;;;;;5.97;2.10;;;;;;;23.08;59.38;95665.22;10366228;28;98843;-72
2022/06/26 21:51:55;;;;;;;5.50;3.50;;;;;;;23.11;59.03;95664.75;10370246;28;96816;-70
2022/06/26 21:57:00;;;;;;;6.03;2.20;;;;;;;23.24;58.28;95667.09;10373537;28;101117;-71
2022/06/26 22:02:03;;;;;;;6.45;3.80;;;;;;;23.32;58.50;95682.69;10363590;28;97404;-71
2022/06/26 22:07:07;;;;;;;4.05;2.20;;;;;;;23.25;59.05;95689.22;10373731;28;96986;-72
2022/06/26 22:12:11;;;;;;;;;;;;;;;23.04;58.82;95678.22;10370595;28;98640;-71
2022/06/26 22:17:15;;;;;;;;;;;;;;;22.81;58.56;95695.91;10376817;28;98020;-72
2022/06/26 22:22:17;;;;;;;7.18;2.30;;;;;;;22.74;58.71;95691.81;10371523;28;99046;-71
2022/06/26 22:32:42;;;;;;;8.82;2.22;;;;;;;22.96;58.78;95722.03;10364332;28;96962;-72
2022/06/26 22:37:45;;;;;;;5.75;2.20;;;;;;;23.01;58.54;95731.97;10373068;28;97726;-71
2022/06/26 22:42:49;;;;;;;3.90;1.77;;;;;;;22.95;58.50;95736.38;10369179;28;97746;-71
2022/06/26 22:47:52;;;;;;;3.20;1.80;;;;;;;22.89;58.49;95748.00;10369600;28;98510;-72
2022/06/26 22:52:55;;;;;;;3.85;1.73;;;;;;;22.92;58.25;95746.72;10370339;28;97433;-71
2022/06/26 22:57:59;;;;;;;7.25;2.10;;;;;;;22.92;58.93;95744.84;10372248;28;97629;-71
2022/06/26 23:03:04;;;;;;;5.25;1.83;;;;;;;22.88;59.13;95735.72;10369213;28;96910;-72
2022/06/26 23:08:07;;;;;;;6.85;2.83;;;;;;;22.87;59.11;95739.44;10371235;28;96929;-71
2022/06/26 23:13:11;;;;;;;6.85;2.58;;;;;;;22.84;59.88;95745.25;10369531;28;100946;-72
2022/06/26 23:18:14;;;;;;;3.67;2.10;;;;;;;22.76;59.89;95741.09;10369775;28;99074;-72
2022/06/26 23:23:17;;;;;;;5.88;2.00;;;;;;;22.72;59.99;95742.63;10368366;28;96887;-71
2022/06/26 23:28:21;;;;;;;4.78;2.17;;;;;;;22.73;60.70;95746.09;10370326;28;96933;-71
2022/06/26 23:33:23;;;;;;;;;;;;;;;22.73;60.04;95754.06;10366394;28;97659;-71
2022/06/26 23:38:26;;;;;;;4.90;1.80;;;;;;;22.73;60.41;95759.41;10369948;28;97284;-71
2022/06/26 23:43:31;;;;;;;5.55;1.80;;;;;;;22.63;60.85;95746.72;10372221;28;97577;-71
2022/06/26 23:48:34;;;;;;;3.20;1.70;;;;;;;22.54;61.04;95740.91;10362991;28;97770;-71
2022/06/26 23:53:37;;;;;;;4.32;1.80;;;;;;;22.44;61.26;95738.84;10372956;28;98476;-71
2022/06/26 23:58:41;;;;;;;5.88;2.53;;;;;;;22.38;61.80;95746.94;10377043;28;96839;-72
